sensor_id;sensor_type;location;lat;lon;timestamp;pressure;altitude;pressure_sealevel;temperature;humidity
43161;BME280;40968;52.342;5.528;2022-08-11T00:01:10;102396.06;;;22.90;52.43
43161;BME280;40968;52.342;5.528;2022-08-11T00:03:43;102434.50;;;23.06;52.83
43161;BME280;40968;52.342;5.528;2022-08-11T00:06:11;102317.19;;;22.32;52.88
43161;BME280;40968;52.342;5.528;2022-08-11T00:08:40;102311.78;;;22.23;52.79
43161;BME280;40968;52.342;5.528;2022-08-11T00:11:09;102375.31;;;22.61;52.63
43161;BME280;40968;52.342;5.528;2022-08-11T00:13:38;102358.81;;;22.44;52.75
43161;BME280;40968;52.342;5.528;2022-08-11T00:16:13;102137.63;;;21.08;53.11
43161;BME280;40968;52.342;5.528;2022-08-11T00:18:41;102423.78;;;22.77;53.22
43161;BME280;40968;52.342;5.528;2022-08-11T00:21:09;102426.31;;;22.70;53.17
43161;BME280;40968;52.342;5.528;2022-08-11T00:23:41;102423.19;;;22.65;53.33
43161;BME280;40968;52.342;5.528;2022-08-11T00:26:09;102285.69;;;21.74;53.63
43161;BME280;40968;52.342;5.528;2022-08-11T00:28:36;102379.34;;;22.21;53.58
43161;BME280;40968;52.342;5.528;2022-08-11T00:31:05;102430.50;;;22.46;53.82
43161;BME280;40968;52.342;5.528;2022-08-11T00:33:38;102310.94;;;21.76;53.96
43161;BME280;40968;52.342;5.528;2022-08-11T00:36:07;102426.25;;;22.34;54.13
43161;BME280;40968;52.342;5.528;2022-08-11T00:38:36;102395.94;;;22.09;54.22
43161;BME280;40968;52.342;5.528;2022-08-11T00:41:10;102429.91;;;22.25;54.69
43161;BME280;40968;52.342;5.528;2022-08-11T00:43:50;102425.44;;;22.24;54.60
43161;BME280;40968;52.342;5.528;2022-08-11T00:46:36;102345.28;;;21.69;54.67
43161;BME280;40968;52.342;5.528;2022-08-11T00:49:17;102429.78;;;22.16;54.48
43161;BME280;40968;52.342;5.528;2022-08-11T00:51:59;102423.91;;;22.11;54.42
43161;BME280;40968;52.342;5.528;2022-08-11T01:00:55;102294.63;;;21.29;54.92
43161;BME280;40968;52.342;5.528;2022-08-11T01:03:34;102425.88;;;22.01;54.93
43161;BME280;40968;52.342;5.528;2022-08-11T01:06:37;102427.47;;;21.94;55.14
43161;BME280;40968;52.342;5.528;2022-08-11T01:09:23;102430.25;;;21.84;55.18
43161;BME280;40968;52.342;5.528;2022-08-11T01:12:14;102350.72;;;21.31;55.45
43161;BME280;40968;52.342;5.528;2022-08-11T01:24:44;102387.63;;;21.26;55.63
43161;BME280;40968;52.342;5.528;2022-08-11T01:27:31;102403.81;;;21.27;55.64
43161;BME280;40968;52.342;5.528;2022-08-11T01:30:38;102294.06;;;20.58;56.18
43161;BME280;40968;52.342;5.528;2022-08-11T01:39:55;102420.63;;;21.23;56.62
43161;BME280;40968;52.342;5.528;2022-08-11T01:45:58;102417.06;;;21.12;56.94
43161;BME280;40968;52.342;5.528;2022-08-11T01:48:36;102423.97;;;21.07;57.37
43161;BME280;40968;52.342;5.528;2022-08-11T01:51:18;102373.19;;;20.76;57.41
43161;BME280;40968;52.342;5.528;2022-08-11T01:53:52;102424.97;;;20.96;57.03
43161;BME280;40968;52.342;5.528;2022-08-11T01:56:40;102331.63;;;20.35;57.32
43161;BME280;40968;52.342;5.528;2022-08-11T01:59:16;102056.56;;;18.59;57.18
43161;BME280;40968;52.342;5.528;2022-08-11T02:02:12;102419.25;;;20.79;57.49
43161;BME280;40968;52.342;5.528;2022-08-11T02:04:52;102399.13;;;20.61;57.54
43161;BME280;40968;52.342;5.528;2022-08-11T02:07:30;102383.78;;;20.50;57.45
43161;BME280;40968;52.342;5.528;2022-08-11T02:10:13;102415.63;;;20.69;57.53
43161;BME280;40968;52.342;5.528;2022-08-11T02:13:10;102415.03;;;20.56;57.87
43161;BME280;40968;52.342;5.528;2022-08-11T02:15:43;102385.19;;;20.25;58.51
43161;BME280;40968;52.342;5.528;2022-08-11T02:18:15;102422.03;;;20.38;58.82
43161;BME280;40968;52.342;5.528;2022-08-11T02:20:51;102382.84;;;20.10;58.68
43161;BME280;40968;52.342;5.528;2022-08-11T02:23:45;102416.72;;;20.37;58.79
43161;BME280;40968;52.342;5.528;2022-08-11T02:26:19;102389.44;;;20.17;59.07
43161;BME280;40968;52.342;5.528;2022-08-11T02:28:56;102361.03;;;20.00;59.01
43161;BME280;40968;52.342;5.528;2022-08-11T02:31:40;102414.97;;;20.26;59.40
43161;BME280;40968;52.342;5.528;2022-08-11T02:34:34;102355.88;;;19.87;59.25
43161;BME280;40968;52.342;5.528;2022-08-11T02:37:12;102368.41;;;19.79;59.53
43161;BME280;40968;52.342;5.528;2022-08-11T02:39:46;102374.69;;;19.79;59.97
43161;BME280;40968;52.342;5.528;2022-08-11T02:42:22;102406.16;;;20.03;59.99
43161;BME280;40968;52.342;5.528;2022-08-11T02:45:05;102400.88;;;20.01;60.24
43161;BME280;40968;52.342;5.528;2022-08-11T02:47:40;102405.75;;;19.98;60.49
43161;BME280;40968;52.342;5.528;2022-08-11T02:50:30;102394.88;;;19.98;60.72
43161;BME280;40968;52.342;5.528;2022-08-11T02:53:05;102184.81;;;18.72;60.63
43161;BME280;40968;52.342;5.528;2022-08-11T02:55:53;102332.59;;;19.64;60.79
43161;BME280;40968;52.342;5.528;2022-08-11T02:58:31;102402.47;;;20.04;60.73
43161;BME280;40968;52.342;5.528;2022-08-11T03:01:08;102367.47;;;19.90;60.90
43161;BME280;40968;52.342;5.528;2022-08-11T03:03:48;102367.81;;;19.75;60.51
43161;BME280;40968;52.342;5.528;2022-08-11T03:06:23;102369.78;;;19.94;60.62
43161;BME280;40968;52.342;5.528;2022-08-11T03:09:01;102397.63;;;20.17;60.45
43161;BME280;40968;52.342;5.528;2022-08-11T03:11:40;102398.06;;;20.23;60.78
43161;BME280;40968;52.342;5.528;2022-08-11T03:14:30;102353.47;;;19.94;60.38
43161;BME280;40968;52.342;5.528;2022-08-11T03:17:24;102390.47;;;20.26;60.32
43161;BME280;40968;52.342;5.528;2022-08-11T03:20:02;102317.72;;;19.78;60.99
43161;BME280;40968;52.342;5.528;2022-08-11T03:22:36;102379.16;;;20.11;60.81
43161;BME280;40968;52.342;5.528;2022-08-11T03:25:08;102392.00;;;20.09;61.52
43161;BME280;40968;52.342;5.528;2022-08-11T03:27:47;102388.16;;;20.02;61.07
43161;BME280;40968;52.342;5.528;2022-08-11T03:30:20;102386.72;;;19.98;61.21
43161;BME280;40968;52.342;5.528;2022-08-11T03:33:05;102354.50;;;19.72;61.61
43161;BME280;40968;52.342;5.528;2022-08-11T03:36:04;102349.31;;;19.69;61.45
43161;BME280;40968;52.342;5.528;2022-08-11T03:38:45;102274.75;;;19.21;61.42
43161;BME280;40968;52.342;5.528;2022-08-11T03:41:22;102353.78;;;19.70;61.37
43161;BME280;40968;52.342;5.528;2022-08-11T03:44:27;102335.25;;;19.54;61.71
43161;BME280;40968;52.342;5.528;2022-08-11T03:47:11;102336.66;;;19.48;61.38
43161;BME280;40968;52.342;5.528;2022-08-11T03:49:52;102392.16;;;19.77;61.33
43161;BME280;40968;52.342;5.528;2022-08-11T03:52:26;102357.97;;;19.43;61.36
43161;BME280;40968;52.342;5.528;2022-08-11T03:55:03;102295.09;;;19.05;61.34
43161;BME280;40968;52.342;5.528;2022-08-11T03:57:59;102387.75;;;19.54;62.10
43161;BME280;40968;52.342;5.528;2022-08-11T04:01:12;102279.19;;;18.80;62.29
43161;BME280;40968;52.342;5.528;2022-08-11T04:03:57;102382.69;;;19.40;62.27
43161;BME280;40968;52.342;5.528;2022-08-11T04:06:52;102264.31;;;18.53;63.10
43161;BME280;40968;52.342;5.528;2022-08-11T04:15:43;102393.66;;;19.29;63.69
43161;BME280;40968;52.342;5.528;2022-08-11T04:18:49;102375.63;;;19.28;64.13
43161;BME280;40968;52.342;5.528;2022-08-11T04:21:40;102314.94;;;18.96;64.21
43161;BME280;40968;52.342;5.528;2022-08-11T04:24:27;102364.34;;;19.32;64.22
43161;BME280;40968;52.342;5.528;2022-08-11T04:27:26;102363.09;;;19.36;64.16
43161;BME280;40968;52.342;5.528;2022-08-11T04:30:06;102368.38;;;19.38;64.17
43161;BME280;40968;52.342;5.528;2022-08-11T04:33:01;102354.63;;;19.30;64.40
43161;BME280;40968;52.342;5.528;2022-08-11T04:35:37;102326.06;;;19.14;64.33
43161;BME280;40968;52.342;5.528;2022-08-11T04:38:43;102264.63;;;18.81;64.53
43161;BME280;40968;52.342;5.528;2022-08-11T04:41:31;102369.81;;;19.42;64.32
43161;BME280;40968;52.342;5.528;2022-08-11T04:45:26;102369.69;;;19.44;64.26
43161;BME280;40968;52.342;5.528;2022-08-11T04:48:22;102312.63;;;19.13;64.32
43161;BME280;40968;52.342;5.528;2022-08-11T04:51:40;102217.56;;;18.49;64.01
43161;BME280;40968;52.342;5.528;2022-08-11T04:54:33;102365.38;;;19.41;64.14
43161;BME280;40968;52.342;5.528;2022-08-11T04:57:32;102368.09;;;19.41;63.64
43161;BME280;40968;52.342;5.528;2022-08-11T05:00:18;102333.53;;;19.22;64.12
43161;BME280;40968;52.342;5.528;2022-08-11T05:06:25;102373.16;;;19.46;64.43
43161;BME280;40968;52.342;5.528;2022-08-11T05:09:13;102342.88;;;19.29;64.05
43161;BME280;40968;52.342;5.528;2022-08-11T05:12:19;102372.25;;;19.45;64.29
43161;BME280;40968;52.342;5.528;2022-08-11T05:14:53;102364.38;;;19.42;64.71
43161;BME280;40968;52.342;5.528;2022-08-11T05:17:40;102316.72;;;19.07;64.51
43161;BME280;40968;52.342;5.528;2022-08-11T05:20:44;102245.34;;;18.63;64.26
43161;BME280;40968;52.342;5.528;2022-08-11T05:23:29;102326.06;;;19.14;64.16
43161;BME280;40968;52.342;5.528;2022-08-11T05:26:16;102209.69;;;18.46;63.87
43161;BME280;40968;52.342;5.528;2022-08-11T05:29:07;102380.31;;;19.47;63.68
43161;BME280;40968;52.342;5.528;2022-08-11T05:32:11;102300.69;;;19.04;63.32
43161;BME280;40968;52.342;5.528;2022-08-11T05:35:00;102199.97;;;18.44;63.05
43161;BME280;40968;52.342;5.528;2022-08-11T05:37:32;102324.50;;;19.21;62.92
43161;BME280;40968;52.342;5.528;2022-08-11T05:40:05;102141.06;;;18.13;63.01
43161;BME280;40968;52.342;5.528;2022-08-11T05:42:52;102381.19;;;19.57;63.25
43161;BME280;40968;52.342;5.528;2022-08-11T05:45:37;102391.22;;;19.57;62.60
43161;BME280;40968;52.342;5.528;2022-08-11T05:48:29;102350.81;;;19.42;62.44
43161;BME280;40968;52.342;5.528;2022-08-11T05:51:15;102386.09;;;19.63;62.28
43161;BME280;40968;52.342;5.528;2022-08-11T05:54:00;102294.50;;;19.02;62.16
43161;BME280;40968;52.342;5.528;2022-08-11T05:56:50;102343.19;;;19.36;62.32
43161;BME280;40968;52.342;5.528;2022-08-11T05:59:18;102399.00;;;19.71;62.48
43161;BME280;40968;52.342;5.528;2022-08-11T06:01:47;102298.75;;;19.16;62.53
43161;BME280;40968;52.342;5.528;2022-08-11T06:04:19;102396.47;;;19.79;62.18
43161;BME280;40968;52.342;5.528;2022-08-11T06:06:48;102341.81;;;19.51;61.78
43161;BME280;40968;52.342;5.528;2022-08-11T06:09:21;102393.09;;;19.87;61.90
43161;BME280;40968;52.342;5.528;2022-08-11T06:11:49;102392.84;;;19.90;61.52
43161;BME280;40968;52.342;5.528;2022-08-11T06:14:17;102348.31;;;19.70;61.43
43161;BME280;40968;52.342;5.528;2022-08-11T06:16:47;102318.53;;;19.59;60.86
43161;BME280;40968;52.342;5.528;2022-08-11T06:19:15;102394.19;;;20.15;60.78
43161;BME280;40968;52.342;5.528;2022-08-11T06:21:44;102116.88;;;18.52;60.56
43161;BME280;40968;52.342;5.528;2022-08-11T06:24:13;102398.78;;;20.25;60.95
43161;BME280;40968;52.342;5.528;2022-08-11T06:26:46;102361.38;;;20.07;60.65
43161;BME280;40968;52.342;5.528;2022-08-11T06:29:14;102362.66;;;20.13;60.39
43161;BME280;40968;52.342;5.528;2022-08-11T06:31:50;102224.84;;;19.32;60.44
43161;BME280;40968;52.342;5.528;2022-08-11T06:34:34;102393.22;;;20.36;60.29
43161;BME280;40968;52.342;5.528;2022-08-11T06:37:15;102360.09;;;20.21;60.19
43161;BME280;40968;52.342;5.528;2022-08-11T06:39:49;102347.06;;;20.15;60.21
43161;BME280;40968;52.342;5.528;2022-08-11T06:42:33;102272.47;;;19.67;60.46
43161;BME280;40968;52.342;5.528;2022-08-11T06:45:08;102330.72;;;20.05;59.86
43161;BME280;40968;52.342;5.528;2022-08-11T06:47:42;102387.22;;;20.52;59.93
43161;BME280;40968;52.342;5.528;2022-08-11T06:50:15;102395.97;;;20.56;59.96
43161;BME280;40968;52.342;5.528;2022-08-11T06:53:01;102327.28;;;20.23;59.71
43161;BME280;40968;52.342;5.528;2022-08-11T06:55:30;102401.03;;;20.70;59.78
43161;BME280;40968;52.342;5.528;2022-08-11T06:58:19;102080.03;;;18.91;59.31
43161;BME280;40968;52.342;5.528;2022-08-11T07:01:07;102179.88;;;19.59;58.96
43161;BME280;40968;52.342;5.528;2022-08-11T07:03:41;102325.28;;;20.54;59.14
43161;BME280;40968;52.342;5.528;2022-08-11T07:06:27;102389.84;;;20.93;58.58
43161;BME280;40968;52.342;5.528;2022-08-11T07:09:32;102389.53;;;20.96;58.55
43161;BME280;40968;52.342;5.528;2022-08-11T07:12:36;102310.81;;;20.53;58.56
43161;BME280;40968;52.342;5.528;2022-08-11T07:15:24;102322.13;;;20.68;58.91
43161;BME280;40968;52.342;5.528;2022-08-11T07:18:19;102383.63;;;21.10;58.60
43161;BME280;40968;52.342;5.528;2022-08-11T07:21:10;102349.09;;;20.91;58.38
43161;BME280;40968;52.342;5.528;2022-08-11T07:23:59;102347.66;;;20.97;58.69
43161;BME280;40968;52.342;5.528;2022-08-11T07:26:49;102329.03;;;20.92;58.46
43161;BME280;40968;52.342;5.528;2022-08-11T07:29:35;102321.81;;;21.01;58.17
43161;BME280;40968;52.342;5.528;2022-08-11T07:32:13;102383.28;;;21.43;57.85
43161;BME280;40968;52.342;5.528;2022-08-11T07:34:46;102378.06;;;21.49;57.90
43161;BME280;40968;52.342;5.528;2022-08-11T07:37:16;102323.25;;;21.15;57.44
43161;BME280;40968;52.342;5.528;2022-08-11T07:39:46;102355.84;;;21.44;58.08
43161;BME280;40968;52.342;5.528;2022-08-11T07:42:15;102381.06;;;21.66;57.85
43161;BME280;40968;52.342;5.528;2022-08-11T07:44:46;102358.72;;;21.52;57.48
43161;BME280;40968;52.342;5.528;2022-08-11T07:47:31;102322.16;;;21.35;57.04
43161;BME280;40968;52.342;5.528;2022-08-11T07:50:18;102381.88;;;21.76;56.94
43161;BME280;40968;52.342;5.528;2022-08-11T07:53:03;102294.19;;;21.33;57.23
43161;BME280;40968;52.342;5.528;2022-08-11T07:55:31;102311.38;;;21.44;56.66
43161;BME280;40968;52.342;5.528;2022-08-11T07:58:00;102385.22;;;21.98;56.07
43161;BME280;40968;52.342;5.528;2022-08-11T08:00:47;102382.88;;;22.03;55.98
43161;BME280;40968;52.342;5.528;2022-08-11T08:03:32;102380.97;;;22.13;56.02
43161;BME280;40968;52.342;5.528;2022-08-11T08:06:16;102341.25;;;22.01;55.28
43161;BME280;40968;52.342;5.528;2022-08-11T08:09:03;102328.28;;;22.03;55.55
43161;BME280;40968;52.342;5.528;2022-08-11T08:11:49;102374.47;;;22.42;54.46
43161;BME280;40968;52.342;5.528;2022-08-11T08:14:34;102366.84;;;22.46;53.31
43161;BME280;40968;52.342;5.528;2022-08-11T08:17:19;102284.63;;;22.03;53.47
43161;BME280;40968;52.342;5.528;2022-08-11T08:20:05;102378.84;;;22.71;53.12
43161;BME280;40968;52.342;5.528;2022-08-11T08:22:35;102318.22;;;22.49;52.71
43161;BME280;40968;52.342;5.528;2022-08-11T08:25:03;102327.72;;;22.63;52.97
43161;BME280;40968;52.342;5.528;2022-08-11T08:27:32;102354.78;;;22.93;52.51
43161;BME280;40968;52.342;5.528;2022-08-11T08:30:00;102306.78;;;22.72;51.22
43161;BME280;40968;52.342;5.528;2022-08-11T08:32:45;102381.88;;;23.30;51.14
43161;BME280;40968;52.342;5.528;2022-08-11T08:35:12;102367.94;;;23.42;50.74
43161;BME280;40968;52.342;5.528;2022-08-11T08:37:39;102129.41;;;22.08;51.08
43161;BME280;40968;52.342;5.528;2022-08-11T08:40:06;102381.91;;;23.65;49.38
43161;BME280;40968;52.342;5.528;2022-08-11T08:42:38;102321.22;;;23.35;49.23
43161;BME280;40968;52.342;5.528;2022-08-11T08:45:09;102374.81;;;23.80;49.55
43161;BME280;40968;52.342;5.528;2022-08-11T08:47:40;102326.28;;;23.56;49.23
43161;BME280;40968;52.342;5.528;2022-08-11T08:50:10;102376.44;;;23.99;48.18
43161;BME280;40968;52.342;5.528;2022-08-11T08:52:38;102382.81;;;24.08;48.04
43161;BME280;40968;52.342;5.528;2022-08-11T08:55:08;102381.78;;;24.17;47.39
43161;BME280;40968;52.342;5.528;2022-08-11T08:57:40;102340.34;;;24.04;46.69
43161;BME280;40968;52.342;5.528;2022-08-11T09:00:09;102382.00;;;24.32;46.00
43161;BME280;40968;52.342;5.528;2022-08-11T09:02:36;102342.44;;;24.19;45.68
43161;BME280;40968;52.342;5.528;2022-08-11T09:05:03;102369.53;;;24.46;44.99
43161;BME280;40968;52.342;5.528;2022-08-11T09:07:30;102332.19;;;24.29;45.07
43161;BME280;40968;52.342;5.528;2022-08-11T09:09:58;102377.47;;;24.66;44.59
43161;BME280;40968;52.342;5.528;2022-08-11T09:12:27;102374.53;;;24.76;44.32
43161;BME280;40968;52.342;5.528;2022-08-11T09:14:56;102381.41;;;24.88;44.37
43161;BME280;40968;52.342;5.528;2022-08-11T09:17:30;102352.09;;;24.89;43.64
43161;BME280;40968;52.342;5.528;2022-08-11T09:20:00;102370.22;;;25.14;43.72
43161;BME280;40968;52.342;5.528;2022-08-11T09:22:31;102257.34;;;24.53;42.46
43161;BME280;40968;52.342;5.528;2022-08-11T09:25:15;102367.28;;;25.41;42.35
43161;BME280;40968;52.342;5.528;2022-08-11T09:28:01;102366.03;;;25.52;41.97
43161;BME280;40968;52.342;5.528;2022-08-11T09:30:30;102346.50;;;25.55;41.77
43161;BME280;40968;52.342;5.528;2022-08-11T09:33:00;102320.41;;;25.51;41.42
43161;BME280;40968;52.342;5.528;2022-08-11T09:35:30;102305.66;;;25.52;40.96
43161;BME280;40968;52.342;5.528;2022-08-11T09:37:59;102357.66;;;25.93;40.34
43161;BME280;40968;52.342;5.528;2022-08-11T09:40:46;102285.69;;;25.66;40.15
43161;BME280;40968;52.342;5.528;2022-08-11T09:43:16;102348.25;;;26.19;39.11
43161;BME280;40968;52.342;5.528;2022-08-11T09:46:03;102345.78;;;26.32;38.45
43161;BME280;40968;52.342;5.528;2022-08-11T09:48:34;102325.84;;;26.30;38.52
43161;BME280;40968;52.342;5.528;2022-08-11T09:51:01;102323.03;;;26.38;38.28
43161;BME280;40968;52.342;5.528;2022-08-11T09:53:31;102344.63;;;26.64;37.63
43161;BME280;40968;52.342;5.528;2022-08-11T09:55:59;102308.97;;;26.56;37.55
43161;BME280;40968;52.342;5.528;2022-08-11T09:58:47;102307.66;;;26.75;37.13
43161;BME280;40968;52.342;5.528;2022-08-11T10:01:15;102339.63;;;27.06;35.12
43161;BME280;40968;52.342;5.528;2022-08-11T10:03:53;102338.69;;;27.14;35.53
43161;BME280;40968;52.342;5.528;2022-08-11T10:06:23;102298.75;;;27.03;36.21
43161;BME280;40968;52.342;5.528;2022-08-11T10:09:08;102334.09;;;27.44;35.65
43161;BME280;40968;52.342;5.528;2022-08-11T10:11:37;102288.72;;;27.25;34.41
43161;BME280;40968;52.342;5.528;2022-08-11T10:14:07;102340.16;;;27.70;35.30
43161;BME280;40968;52.342;5.528;2022-08-11T10:16:53;102315.81;;;27.73;34.97
43161;BME280;40968;52.342;5.528;2022-08-11T10:19:20;102320.72;;;27.93;34.60
43161;BME280;40968;52.342;5.528;2022-08-11T10:21:50;102278.59;;;27.77;34.04
43161;BME280;40968;52.342;5.528;2022-08-11T10:24:40;102329.59;;;28.25;32.90
43161;BME280;40968;52.342;5.528;2022-08-11T10:27:26;102321.19;;;28.33;33.31
43161;BME280;40968;52.342;5.528;2022-08-11T10:29:53;102309.75;;;28.36;33.54
43161;BME280;40968;52.342;5.528;2022-08-11T10:32:39;102298.88;;;28.50;33.15
43161;BME280;40968;52.342;5.528;2022-08-11T10:35:23;102275.88;;;28.42;31.80
43161;BME280;40968;52.342;5.528;2022-08-11T10:37:52;102299.97;;;28.77;32.94
43161;BME280;40968;52.342;5.528;2022-08-11T10:40:21;102311.19;;;29.04;31.77
43161;BME280;40968;52.342;5.528;2022-08-11T10:42:49;102313.38;;;29.15;31.39
43161;BME280;40968;52.342;5.528;2022-08-11T10:45:33;102318.78;;;29.30;30.75
43161;BME280;40968;52.342;5.528;2022-08-11T10:48:20;102244.97;;;29.10;30.60
43161;BME280;40968;52.342;5.528;2022-08-11T10:50:48;102312.56;;;29.63;29.84
43161;BME280;40968;52.342;5.528;2022-08-11T10:53:34;102241.50;;;29.30;30.38
43161;BME280;40968;52.342;5.528;2022-08-11T10:56:19;102309.47;;;29.86;29.00
43161;BME280;40968;52.342;5.528;2022-08-11T10:59:07;102296.38;;;29.95;29.00
43161;BME280;40968;52.342;5.528;2022-08-11T11:01:37;102282.78;;;30.00;28.11
43161;BME280;40968;52.342;5.528;2022-08-11T11:04:07;102297.69;;;30.26;27.06
43161;BME280;40968;52.342;5.528;2022-08-11T11:06:42;102299.00;;;30.37;27.74
43161;BME280;40968;52.342;5.528;2022-08-11T11:09:15;102236.63;;;30.14;27.17
43161;BME280;40968;52.342;5.528;2022-08-11T11:11:47;102290.72;;;30.64;26.45
43161;BME280;40968;52.342;5.528;2022-08-11T11:14:33;102280.28;;;30.72;26.45
43161;BME280;40968;52.342;5.528;2022-08-11T11:17:26;102227.09;;;30.43;27.01
43161;BME280;40968;52.342;5.528;2022-08-11T11:20:17;102285.34;;;30.89;27.04
43161;BME280;40968;52.342;5.528;2022-08-11T11:22:48;102289.41;;;31.06;26.43
43161;BME280;40968;52.342;5.528;2022-08-11T11:25:21;102294.03;;;31.26;24.88
43161;BME280;40968;52.342;5.528;2022-08-11T11:27:59;102286.97;;;31.37;24.72
43161;BME280;40968;52.342;5.528;2022-08-11T11:30:36;102282.22;;;31.44;23.54
43161;BME280;40968;52.342;5.528;2022-08-11T11:33:10;102275.00;;;31.50;23.51
43161;BME280;40968;52.342;5.528;2022-08-11T11:35:52;102138.28;;;30.79;23.30
43161;BME280;40968;52.342;5.528;2022-08-11T11:38:21;102254.91;;;31.61;22.71
43161;BME280;40968;52.342;5.528;2022-08-11T11:40:49;102253.56;;;31.70;23.43
43161;BME280;40968;52.342;5.528;2022-08-11T11:43:36;102275.78;;;32.02;23.45
43161;BME280;40968;52.342;5.528;2022-08-11T11:46:04;102252.06;;;32.06;22.85
43161;BME280;40968;52.342;5.528;2022-08-11T11:48:33;102265.59;;;32.28;22.47
43161;BME280;40968;52.342;5.528;2022-08-11T11:51:02;102260.38;;;32.38;22.89
43161;BME280;40968;52.342;5.528;2022-08-11T11:53:29;102269.97;;;32.43;23.45
43161;BME280;40968;52.342;5.528;2022-08-11T11:55:56;102242.91;;;32.38;23.35
43161;BME280;40968;52.342;5.528;2022-08-11T11:58:25;102236.38;;;32.51;23.59
43161;BME280;40968;52.342;5.528;2022-08-11T12:01:10;102210.66;;;32.62;22.79
43161;BME280;40968;52.342;5.528;2022-08-11T12:03:47;102233.50;;;32.83;22.21
43161;BME280;40968;52.342;5.528;2022-08-11T12:06:17;102255.28;;;33.04;22.62
43161;BME280;40968;52.342;5.528;2022-08-11T12:08:48;102212.53;;;32.87;21.96
43161;BME280;40968;52.342;5.528;2022-08-11T12:11:18;102241.41;;;33.04;21.74
43161;BME280;40968;52.342;5.528;2022-08-11T12:14:05;102218.97;;;32.87;21.92
43161;BME280;40968;52.342;5.528;2022-08-11T12:16:34;102244.78;;;33.06;20.87
43161;BME280;40968;52.342;5.528;2022-08-11T12:19:02;102243.78;;;33.19;21.77
43161;BME280;40968;52.342;5.528;2022-08-11T12:21:33;102219.78;;;33.25;21.11
43161;BME280;40968;52.342;5.528;2022-08-11T12:24:02;102226.28;;;33.37;22.67
43161;BME280;40968;52.342;5.528;2022-08-11T12:26:47;102223.50;;;33.68;22.57
43161;BME280;40968;52.342;5.528;2022-08-11T12:29:32;102228.06;;;33.93;22.51
43161;BME280;40968;52.342;5.528;2022-08-11T12:31:59;102217.56;;;33.95;22.17
43161;BME280;40968;52.342;5.528;2022-08-11T12:34:26;102180.13;;;33.79;21.36
43161;BME280;40968;52.342;5.528;2022-08-11T12:36:58;102224.13;;;34.12;20.74
43161;BME280;40968;52.342;5.528;2022-08-11T12:39:28;102219.88;;;34.21;20.21
43161;BME280;40968;52.342;5.528;2022-08-11T12:42:13;102204.66;;;34.24;19.55
43161;BME280;40968;52.342;5.528;2022-08-11T12:44:58;102177.56;;;34.08;20.43
43161;BME280;40968;52.342;5.528;2022-08-11T12:47:48;102173.34;;;34.17;20.57
43161;BME280;40968;52.342;5.528;2022-08-11T12:50:34;102197.91;;;34.44;20.31
43161;BME280;40968;52.342;5.528;2022-08-11T12:53:24;102199.13;;;34.48;19.46
43161;BME280;40968;52.342;5.528;2022-08-11T12:55:52;102197.66;;;34.57;19.19
43161;BME280;40968;52.342;5.528;2022-08-11T12:58:40;102193.28;;;34.61;19.82
43161;BME280;40968;52.342;5.528;2022-08-11T13:01:07;102200.66;;;34.79;19.43
43161;BME280;40968;52.342;5.528;2022-08-11T13:03:52;102200.31;;;34.99;19.79
43161;BME280;40968;52.342;5.528;2022-08-11T13:06:36;102155.88;;;34.81;18.84
43161;BME280;40968;52.342;5.528;2022-08-11T13:09:05;102182.94;;;35.09;18.43
43161;BME280;40968;52.342;5.528;2022-08-11T13:11:32;102187.88;;;35.19;18.46
43161;BME280;40968;52.342;5.528;2022-08-11T13:14:17;102143.13;;;35.09;18.99
43161;BME280;40968;52.342;5.528;2022-08-11T13:16:45;102183.03;;;35.55;18.21
43161;BME280;40968;52.342;5.528;2022-08-11T13:19:31;102165.94;;;35.51;18.31
43161;BME280;40968;52.342;5.528;2022-08-11T13:21:59;102179.03;;;35.51;18.42
43161;BME280;40968;52.342;5.528;2022-08-11T13:24:28;102153.78;;;35.41;18.04
43161;BME280;40968;52.342;5.528;2022-08-11T13:26:58;102160.97;;;35.53;18.18
43161;BME280;40968;52.342;5.528;2022-08-11T13:29:27;102144.91;;;35.44;18.66
43161;BME280;40968;52.342;5.528;2022-08-11T13:31:56;102170.63;;;35.80;18.73
43161;BME280;40968;52.342;5.528;2022-08-11T13:34:25;102169.47;;;36.10;18.16
43161;BME280;40968;52.342;5.528;2022-08-11T13:36:54;102175.47;;;36.18;17.29
43161;BME280;40968;52.342;5.528;2022-08-11T13:39:22;102148.69;;;36.00;18.13
43161;BME280;40968;52.342;5.528;2022-08-11T13:41:52;102170.75;;;36.19;17.56
43161;BME280;40968;52.342;5.528;2022-08-11T13:44:21;102175.16;;;36.15;17.12
43161;BME280;40968;52.342;5.528;2022-08-11T13:46:52;102150.53;;;35.95;16.90
43161;BME280;40968;52.342;5.528;2022-08-11T13:49:21;102145.81;;;35.95;17.36
43161;BME280;40968;52.342;5.528;2022-08-11T13:51:49;102149.44;;;36.13;17.48
43161;BME280;40968;52.342;5.528;2022-08-11T13:54:17;102104.91;;;36.01;17.45
43161;BME280;40968;52.342;5.528;2022-08-11T13:56:46;102153.75;;;36.38;16.55
43161;BME280;40968;52.342;5.528;2022-08-11T13:59:18;102134.28;;;36.43;16.82
43161;BME280;40968;52.342;5.528;2022-08-11T14:01:48;102131.03;;;36.51;17.08
43161;BME280;40968;52.342;5.528;2022-08-11T14:04:20;102155.84;;;36.70;16.25
43161;BME280;40968;52.342;5.528;2022-08-11T14:06:51;102153.28;;;36.85;16.97
43161;BME280;40968;52.342;5.528;2022-08-11T14:09:22;102141.59;;;36.88;16.16
43161;BME280;40968;52.342;5.528;2022-08-11T14:11:52;102151.31;;;37.08;15.96
43161;BME280;40968;52.342;5.528;2022-08-11T14:14:40;102149.56;;;37.02;16.49
43161;BME280;40968;52.342;5.528;2022-08-11T14:17:08;102145.81;;;37.18;16.38
43161;BME280;40968;52.342;5.528;2022-08-11T14:19:40;102152.00;;;37.20;16.37
43161;BME280;40968;52.342;5.528;2022-08-11T14:22:08;102146.34;;;37.15;16.38
43161;BME280;40968;52.342;5.528;2022-08-11T14:24:37;102144.38;;;37.10;16.09